This is the latest recevied weather packets stored in our database for station/object EA4BCR. If no packets are shown the sender has not sent any weather packets the latest 10 day(s).
| Time | Temp. | Humidity | Pressure | Rain* | Wind** | Luminosity | Snow |
|---|---|---|---|---|---|---|---|
| 1777436210 | 13.33° C | 95% | 1009.6 hPa | - | - | - | - |
| 1777435610 | 13.89° C | 94% | 1009.5 hPa | - | - | - | - |
| 1777435010 | 13.89° C | 92% | 1009.7 hPa | - | - | - | - |
| 1777434410 | 13.33° C | 88% | 1010 hPa | - | - | - | - |
| 1777433810 | 14.44° C | 81% | 1009.7 hPa | - | - | - | - |
| 1777433210 | 14.44° C | 81% | 1009.6 hPa | - | - | - | - |
| 1777432610 | 15° C | 78% | 1009.2 hPa | - | - | - | - |
| 1777432010 | 15° C | 74% | 1009.4 hPa | - | - | - | - |
| 1777431410 | 15.56° C | 68% | 1009.1 hPa | - | - | - | - |
| 1777430810 | 15.56° C | 66% | 1009.3 hPa | - | - | - | - |
| 1777430210 | 16.11° C | 62% | 1009.2 hPa | - | - | - | - |
| 1777429610 | 16.11° C | 59% | 1009 hPa | - | - | - | - |
| 1777429010 | 16.11° C | 58% | 1009.2 hPa | - | - | - | - |
| 1777428410 | 16.11° C | 61% | 1009.1 hPa | - | - | - | - |
| 1777427810 | 15° C | 61% | 1009.3 hPa | - | - | - | - |
| 1777427209 | 15.56° C | 57% | 1009.3 hPa | - | - | - | - |
| 1777426610 | 15.56° C | 57% | 1009.4 hPa | - | - | - | - |
| 1777426009 | 15.56° C | 56% | 1009.3 hPa | - | - | - | - |
| 1777425410 | 15.56° C | 56% | 1009.3 hPa | - | - | - | - |
| 1777424810 | 15.56° C | 56% | 1009.3 hPa | - | - | - | - |
| 1777424209 | 15° C | 58% | 1009.6 hPa | - | - | - | - |
| 1777423610 | 15.56° C | 58% | 1009.6 hPa | - | - | - | - |
| 1777423010 | 15° C | 56% | 1009.8 hPa | - | - | - | - |
| 1777422410 | 15° C | 57% | 1009.9 hPa | - | - | - | - |
| 1777421810 | 15.56° C | 55% | 1009.7 hPa | - | - | - | - |
* Rain since midnight (hover to see other rain measurements)
** Current wind speed in m/s (hover to see current wind gust speed)